Time;durP1;ratioP1;P1;durP2;ratioP2;P2;SDS_P1;SDS_P2;PMS_P1;PMS_P2;Temp;Humidity;BMP_temperature;BMP_pressure;BME280_temperature;BME280_humidity;BME280_pressure;Samples;Min_cycle;Max_cycle;Signal;HPM_P1;HPM_P2
2022/01/13 00:01:30;;;;;;;78.60;27.67;;;;;;;;;;5046915;28;20049;-78
2022/01/13 00:03:57;;;;;;;82.00;26.55;;;;;;;;;;5044782;28;20128;-79
2022/01/13 00:06:23;;;;;;;81.43;28.35;;;;;;;;;;5039396;28;20054;-81
2022/01/13 00:08:51;;;;;;;86.28;26.50;;;;;;;;;;5038276;28;20123;-79
2022/01/13 00:11:18;;;;;;;81.72;28.88;;;;;;;;;;5037502;28;20050;-80
2022/01/13 00:13:49;;;;;;;77.50;27.50;;;;;;;;;;5037308;28;20095;-79
2022/01/13 00:16:40;;;;;;;;;;;;;;;;;;5057925;23;20052;-62
2022/01/13 00:19:19;;;;;;;75.70;26.25;;;;;;;;;;4993571;28;19929;-61
2022/01/13 00:21:52;;;;;;;76.95;26.75;;;;;;;;;;4993398;28;20085;-60
2022/01/13 00:24:20;;;;;;;80.20;24.48;;;;;;;;;;4993217;28;20050;-61
2022/01/13 00:26:48;;;;;;;91.88;28.42;;;;;;;;;;4992846;28;20046;-62
2022/01/13 00:29:20;;;;;;;81.57;28.67;;;;;;;;;;4993011;28;20054;-61
2022/01/13 00:31:47;;;;;;;82.60;26.83;;;;;;;;;;4993510;28;20061;-61
2022/01/13 00:34:14;;;;;;;92.53;29.17;;;;;;;;;;4992997;28;20096;-61
2022/01/13 00:36:41;;;;;;;73.82;25.63;;;;;;;;;;4993036;28;20046;-61
2022/01/13 00:39:11;;;;;;;78.53;26.27;;;;;;;;;;4992793;28;20518;-61
2022/01/13 00:41:40;;;;;;;82.63;26.15;;;;;;;;;;4993452;28;20089;-60
2022/01/13 00:44:09;;;;;;;80.43;27.10;;;;;;;;;;4993019;28;20555;-60
2022/01/13 00:46:44;;;;;;;86.18;29.17;;;;;;;;;;4993121;28;20509;-61
2022/01/13 00:49:12;;;;;;;73.30;24.05;;;;;;;;;;4992996;28;20506;-61
2022/01/13 00:51:40;;;;;;;81.38;26.85;;;;;;;;;;4993342;28;20058;-59
2022/01/13 00:54:08;;;;;;;75.78;25.88;;;;;;;;;;4992795;28;20054;-61
2022/01/13 00:56:36;;;;;;;75.18;25.80;;;;;;;;;;4992735;28;20085;-61
2022/01/13 00:59:08;;;;;;;80.55;27.50;;;;;;;;;;4992896;28;20061;-59
2022/01/13 01:01:35;;;;;;;82.63;27.90;;;;;;;;;;4993259;28;20053;-61
2022/01/13 01:04:03;;;;;;;84.78;26.75;;;;;;;;;;4996196;28;20073;-60
2022/01/13 01:06:30;;;;;;;86.95;27.75;;;;;;;;;;4996613;28;20054;-59
2022/01/13 01:08:57;;;;;;;85.50;26.08;;;;;;;;;;4996436;28;20410;-61
2022/01/13 01:11:26;;;;;;;75.50;27.25;;;;;;;;;;4996859;28;20050;-60
2022/01/13 01:13:54;;;;;;;86.50;26.08;;;;;;;;;;4997014;28;20085;-61
2022/01/13 01:16:24;;;;;;;86.95;28.55;;;;;;;;;;4996424;28;20058;-61
2022/01/13 01:18:59;;;;;;;80.60;27.63;;;;;;;;;;4996595;28;20525;-60
2022/01/13 01:24:53;;;;;;;87.45;25.30;;;;;;;;;;4955337;29;20154;-61
2022/01/13 01:27:20;;;;;;;88.53;26.48;;;;;;;;;;4994311;28;20060;-61
2022/01/13 01:29:54;;;;;;;92.50;27.92;;;;;;;;;;4996177;28;20145;-60
2022/01/13 01:32:23;;;;;;;80.90;26.30;;;;;;;;;;4996747;28;20157;-61
2022/01/13 01:35:00;;;;;;;79.53;27.52;;;;;;;;;;4996274;28;20503;-60
2022/01/13 01:37:30;;;;;;;87.53;27.15;;;;;;;;;;4995744;28;20101;-60
2022/01/13 01:39:59;;;;;;;76.15;25.40;;;;;;;;;;4995795;28;20148;-61
2022/01/13 01:42:27;;;;;;;83.00;28.02;;;;;;;;;;4996314;28;20057;-61
2022/01/13 01:44:56;;;;;;;77.95;26.75;;;;;;;;;;4996176;28;20081;-61
2022/01/13 01:47:28;;;;;;;75.25;25.67;;;;;;;;;;4996023;28;20240;-60
2022/01/13 01:49:58;;;;;;;75.40;25.65;;;;;;;;;;4995821;28;20077;-61
2022/01/13 01:52:27;;;;;;;78.43;26.75;;;;;;;;;;4996156;28;20109;-61
2022/01/13 01:54:54;;;;;;;81.75;26.98;;;;;;;;;;4995754;28;20057;-60
2022/01/13 01:57:23;;;;;;;81.30;27.33;;;;;;;;;;4995679;28;20050;-61
2022/01/13 01:59:50;;;;;;;76.63;25.80;;;;;;;;;;4995629;28;20046;-61
2022/01/13 02:02:17;;;;;;;75.20;24.88;;;;;;;;;;4995956;28;20439;-60
2022/01/13 02:04:46;;;;;;;76.72;25.60;;;;;;;;;;4995724;28;20057;-60
2022/01/13 02:07:14;;;;;;;75.03;27.55;;;;;;;;;;4995629;28;20065;-61
2022/01/13 02:09:43;;;;;;;84.28;26.80;;;;;;;;;;4995471;28;20525;-61
2022/01/13 02:12:15;;;;;;;79.20;26.90;;;;;;;;;;4995481;28;20373;-60
2022/01/13 02:14:56;;;;;;;81.88;26.88;;;;;;;;;;4993902;28;20061;-61
2022/01/13 02:17:26;;;;;;;77.78;24.80;;;;;;;;;;4995656;28;20180;-61
2022/01/13 02:19:56;;;;;;;78.85;25.63;;;;;;;;;;4995221;28;20109;-61
2022/01/13 02:22:25;;;;;;;76.82;26.63;;;;;;;;;;4995316;28;20558;-61
2022/01/13 02:24:52;;;;;;;73.57;25.13;;;;;;;;;;4995073;28;20077;-61
2022/01/13 02:27:19;;;;;;;80.85;26.95;;;;;;;;;;4995227;28;20510;-61
2022/01/13 02:29:47;;;;;;;76.15;25.13;;;;;;;;;;4994990;28;20077;-59
2022/01/13 02:32:14;;;;;;;88.43;27.25;;;;;;;;;;4995157;28;20059;-61
2022/01/13 02:34:41;;;;;;;80.93;26.80;;;;;;;;;;4994859;28;20046;-61
2022/01/13 02:37:08;;;;;;;81.10;26.27;;;;;;;;;;4995216;28;20058;-61
2022/01/13 02:39:37;;;;;;;80.63;26.33;;;;;;;;;;4995140;28;20050;-61
2022/01/13 02:42:11;;;;;;;86.35;27.52;;;;;;;;;;4994910;28;20411;-60
2022/01/13 02:44:45;;;;;;;75.47;24.08;;;;;;;;;;4994953;28;20455;-61
2022/01/13 02:47:21;;;;;;;82.47;27.65;;;;;;;;;;4994878;28;20071;-59
2022/01/13 02:49:49;;;;;;;79.97;27.98;;;;;;;;;;4994875;28;20145;-61
2022/01/13 02:52:16;;;;;;;78.78;24.83;;;;;;;;;;4995195;28;20086;-60
2022/01/13 02:54:44;;;;;;;76.68;27.27;;;;;;;;;;4994528;28;20061;-59
2022/01/13 02:57:11;;;;;;;84.28;28.15;;;;;;;;;;4994327;28;20050;-61
2022/01/13 02:59:38;;;;;;;80.32;27.60;;;;;;;;;;4994681;28;20058;-61
2022/01/13 03:02:05;;;;;;;78.15;25.90;;;;;;;;;;4994420;28;20054;-61
2022/01/13 03:04:32;;;;;;;79.00;26.65;;;;;;;;;;4994727;28;20054;-59
2022/01/13 03:06:59;;;;;;;82.35;26.77;;;;;;;;;;4994404;28;20069;-61
2022/01/13 03:09:26;;;;;;;79.47;26.73;;;;;;;;;;4994361;28;20061;-61
2022/01/13 03:11:55;;;;;;;81.53;27.42;;;;;;;;;;4994770;28;20045;-61
2022/01/13 03:14:22;;;;;;;80.15;27.40;;;;;;;;;;4994369;28;20046;-59
2022/01/13 03:16:48;;;;;;;85.53;27.67;;;;;;;;;;4994174;28;20096;-61
2022/01/13 03:19:15;;;;;;;85.20;25.70;;;;;;;;;;4994364;28;20054;-61
2022/01/13 03:21:42;;;;;;;87.18;29.52;;;;;;;;;;4994180;28;20073;-60
2022/01/13 03:24:11;;;;;;;85.45;26.45;;;;;;;;;;4993917;28;20507;-61
2022/01/13 03:26:38;;;;;;;83.57;27.73;;;;;;;;;;4993511;28;20061;-59
2022/01/13 03:29:17;;;;;;;87.70;28.52;;;;;;;;;;4993861;28;20412;-61
2022/01/13 03:31:45;;;;;;;89.82;27.65;;;;;;;;;;4993719;28;20058;-61
2022/01/13 03:34:13;;;;;;;87.88;27.95;;;;;;;;;;4993916;28;20050;-61
2022/01/13 03:36:40;;;;;;;80.55;25.92;;;;;;;;;;4993688;28;20559;-61
2022/01/13 03:39:09;;;;;;;86.47;28.10;;;;;;;;;;4993898;28;20058;-60
2022/01/13 03:41:37;;;;;;;84.00;26.30;;;;;;;;;;4993627;28;20054;-61
2022/01/13 03:44:15;;;;;;;79.88;27.10;;;;;;;;;;4994046;28;20446;-61
2022/01/13 03:46:42;;;;;;;92.40;28.73;;;;;;;;;;4993586;28;20062;-60
2022/01/13 03:49:09;;;;;;;84.53;27.85;;;;;;;;;;4993437;28;20054;-61
2022/01/13 03:52:33;;;;;;;76.50;26.13;;;;;;;;;;4993555;28;20046;-61
2022/01/13 03:55:51;;;;;;;70.95;23.23;;;;;;;;;;4993691;28;20105;-60
2022/01/13 03:58:54;;;;;;;79.65;26.40;;;;;;;;;;4993215;28;20061;-60
2022/01/13 04:01:57;;;;;;;74.78;26.58;;;;;;;;;;4993365;28;20050;-61
2022/01/13 04:04:25;;;;;;;77.78;25.77;;;;;;;;;;4993761;28;20050;-60
2022/01/13 04:07:08;;;;;;;77.75;27.00;;;;;;;;;;4993217;28;20062;-60
2022/01/13 04:10:14;;;;;;;79.13;25.75;;;;;;;;;;4993283;28;20105;-60
2022/01/13 04:12:41;;;;;;;82.05;25.42;;;;;;;;;;4944234;28;20066;-61
2022/01/13 04:15:12;;;;;;;80.45;25.95;;;;;;;;;;4993264;28;20046;-61
2022/01/13 04:17:39;;;;;;;;;;;;;;;;;;4993518;28;20484;-60
2022/01/13 04:20:09;;;;;;;86.32;25.77;;;;;;;;;;4992937;28;19926;-61
2022/01/13 04:22:36;;;;;;;81.00;27.70;;;;;;;;;;4993083;28;21740;-61
2022/01/13 04:25:06;;;;;;;88.65;27.35;;;;;;;;;;4993188;28;20054;-61
2022/01/13 04:27:37;;;;;;;87.37;28.07;;;;;;;;;;4992966;28;20515;-61
2022/01/13 04:32:53;;;;;;;81.40;26.55;;;;;;;;;;4975706;28;20049;-61
2022/01/13 04:35:21;;;;;;;80.45;25.85;;;;;;;;;;4992964;28;20053;-60
2022/01/13 04:37:48;;;;;;;76.35;26.67;;;;;;;;;;4992164;28;20376;-60
2022/01/13 04:40:15;;;;;;;84.47;28.63;;;;;;;;;;4992683;28;20069;-60
2022/01/13 04:42:43;;;;;;;81.53;26.50;;;;;;;;;;4992455;28;20046;-60
2022/01/13 04:45:10;;;;;;;81.95;28.27;;;;;;;;;;4992854;28;20068;-61
2022/01/13 04:47:37;;;;;;;75.30;24.63;;;;;;;;;;4992697;28;20054;-61
2022/01/13 04:50:05;;;;;;;79.50;26.83;;;;;;;;;;4993201;28;20504;-61
2022/01/13 04:52:33;;;;;;;83.43;25.38;;;;;;;;;;4992693;28;20077;-59
2022/01/13 04:55:08;;;;;;;86.35;26.83;;;;;;;;;;4992968;28;20062;-60
2022/01/13 04:57:35;;;;;;;74.95;26.40;;;;;;;;;;4992538;28;20062;-60
2022/01/13 05:00:02;;;;;;;82.00;25.83;;;;;;;;;;4992739;28;20073;-59
2022/01/13 05:02:29;;;;;;;79.50;25.23;;;;;;;;;;4992550;28;20050;-58
2022/01/13 05:04:56;;;;;;;85.18;26.60;;;;;;;;;;4992508;28;20065;-63
2022/01/13 05:07:22;;;;;;;79.53;26.17;;;;;;;;;;4992489;28;20057;-58
2022/01/13 05:09:51;;;;;;;87.93;27.80;;;;;;;;;;4992736;28;20046;-58
2022/01/13 05:12:18;;;;;;;87.55;28.10;;;;;;;;;;4992401;28;20141;-59
2022/01/13 05:14:52;;;;;;;81.15;26.25;;;;;;;;;;4992738;28;20492;-55
2022/01/13 05:17:46;;;;;;;84.97;26.83;;;;;;;;;;4992678;28;20050;-59
2022/01/13 05:20:15;;;;;;;80.47;25.48;;;;;;;;;;4992325;28;20120;-59
2022/01/13 05:22:41;;;;;;;82.07;25.27;;;;;;;;;;4992502;28;20065;-60
2022/01/13 05:25:11;;;;;;;81.93;25.48;;;;;;;;;;4992305;28;20054;-59
2022/01/13 05:27:38;;;;;;;79.20;25.38;;;;;;;;;;4992145;28;20477;-58
2022/01/13 05:30:06;;;;;;;87.95;26.50;;;;;;;;;;4992158;28;20054;-58
2022/01/13 05:32:33;;;;;;;77.43;26.13;;;;;;;;;;4992440;28;20130;-59
2022/01/13 05:35:01;;;;;;;83.82;26.98;;;;;;;;;;4992780;28;20050;-60
2022/01/13 05:37:28;;;;;;;83.57;25.20;;;;;;;;;;4992366;28;20060;-58
2022/01/13 05:39:55;;;;;;;93.97;28.77;;;;;;;;;;4993676;28;20070;-59
2022/01/13 05:42:24;;;;;;;80.05;27.80;;;;;;;;;;4994533;28;20054;-57
2022/01/13 05:44:51;;;;;;;78.38;24.13;;;;;;;;;;4993955;28;20051;-57
2022/01/13 05:47:18;;;;;;;76.70;26.02;;;;;;;;;;4994456;28;20047;-58
2022/01/13 05:49:44;;;;;;;80.15;26.88;;;;;;;;;;4997185;28;20065;-59
2022/01/13 05:52:13;;;;;;;75.85;25.80;;;;;;;;;;4998035;28;20058;-60
2022/01/13 05:54:41;;;;;;;78.45;27.20;;;;;;;;;;4997915;28;20050;-59
2022/01/13 05:57:08;;;;;;;72.50;25.02;;;;;;;;;;4998467;28;20058;-58
2022/01/13 05:59:37;;;;;;;78.25;25.60;;;;;;;;;;4998038;28;20054;-60
2022/01/13 06:02:05;;;;;;;83.38;27.42;;;;;;;;;;4997904;28;20124;-59
2022/01/13 06:04:32;;;;;;;82.18;26.55;;;;;;;;;;4997460;28;20058;-59
2022/01/13 06:06:58;;;;;;;79.80;25.40;;;;;;;;;;4997883;28;20054;-58
2022/01/13 06:09:25;;;;;;;83.90;26.00;;;;;;;;;;4997774;28;20073;-59
2022/01/13 06:11:57;;;;;;;77.35;25.95;;;;;;;;;;4997877;28;20082;-60
2022/01/13 06:14:24;;;;;;;79.32;26.70;;;;;;;;;;4998512;28;20066;-59
2022/01/13 06:16:52;;;;;;;79.07;25.50;;;;;;;;;;4997338;28;20057;-57
2022/01/13 06:19:19;;;;;;;77.35;24.83;;;;;;;;;;5019687;23;20042;-68
2022/01/13 06:21:46;;;;;;;80.55;27.25;;;;;;;;;;5015529;28;20054;-68
2022/01/13 06:24:13;;;;;;;77.55;26.45;;;;;;;;;;5015261;28;20050;-67
2022/01/13 06:26:40;;;;;;;78.82;25.70;;;;;;;;;;5015177;28;20149;-68
2022/01/13 06:29:07;;;;;;;77.70;26.40;;;;;;;;;;5014990;28;20046;-67
2022/01/13 06:31:34;;;;;;;78.60;25.10;;;;;;;;;;5014759;28;20049;-67
2022/01/13 06:34:03;;;;;;;84.15;26.63;;;;;;;;;;5015018;28;20376;-68
2022/01/13 06:36:31;;;;;;;78.07;25.63;;;;;;;;;;5014200;28;20057;-67
2022/01/13 06:38:58;;;;;;;76.25;25.13;;;;;;;;;;5014756;28;20517;-67
2022/01/13 06:41:25;;;;;;;80.95;27.58;;;;;;;;;;5014382;28;20058;-67
2022/01/13 06:43:52;;;;;;;74.45;25.10;;;;;;;;;;5014377;28;20096;-67
2022/01/13 06:46:20;;;;;;;73.38;24.75;;;;;;;;;;5014315;28;20050;-68
2022/01/13 06:48:47;;;;;;;73.85;26.08;;;;;;;;;;5014535;28;20057;-67
2022/01/13 06:51:15;;;;;;;77.05;24.58;;;;;;;;;;5014443;28;20061;-67
2022/01/13 06:53:42;;;;;;;77.25;23.83;;;;;;;;;;5014504;28;20059;-67
2022/01/13 06:56:11;;;;;;;73.35;22.35;;;;;;;;;;5014476;28;20050;-67
2022/01/13 06:58:38;;;;;;;70.45;23.58;;;;;;;;;;5014025;28;20049;-67
2022/01/13 07:01:05;;;;;;;76.80;24.35;;;;;;;;;;5013511;28;20141;-67
2022/01/13 07:03:32;;;;;;;64.15;22.65;;;;;;;;;;5013940;28;20042;-67
2022/01/13 07:05:59;;;;;;;69.07;23.83;;;;;;;;;;5014354;28;20530;-68
2022/01/13 07:08:27;;;;;;;80.50;26.33;;;;;;;;;;5013872;28;20158;-67
2022/01/13 07:10:54;;;;;;;72.72;22.98;;;;;;;;;;5013813;28;20054;-68
2022/01/13 07:13:21;;;;;;;68.28;22.92;;;;;;;;;;5014124;28;20526;-68
2022/01/13 07:15:48;;;;;;;71.15;22.17;;;;;;;;;;5013793;28;20053;-68
2022/01/13 07:18:15;;;;;;;74.28;23.70;;;;;;;;;;5013592;28;20331;-67
2022/01/13 07:20:45;;;;;;;63.83;21.10;;;;;;;;;;5003773;28;20456;-67
2022/01/13 07:23:12;;;;;;;63.63;21.92;;;;;;;;;;4974859;28;20058;-67
2022/01/13 07:25:40;;;;;;;57.33;18.77;;;;;;;;;;4974942;28;20153;-67
2022/01/13 07:28:07;;;;;;;65.90;22.23;;;;;;;;;;4974464;28;20062;-67
2022/01/13 07:30:35;;;;;;;67.05;21.92;;;;;;;;;;4975498;28;20046;-67
2022/01/13 07:33:02;;;;;;;57.45;20.65;;;;;;;;;;4974625;28;20055;-67
2022/01/13 07:35:29;;;;;;;69.00;23.10;;;;;;;;;;4974645;28;20065;-67
2022/01/13 07:37:56;;;;;;;67.85;22.83;;;;;;;;;;4974273;28;20059;-67
2022/01/13 07:40:23;;;;;;;61.15;22.35;;;;;;;;;;4976120;28;20109;-67
2022/01/13 07:42:51;;;;;;;61.60;20.63;;;;;;;;;;4974265;28;20054;-67
2022/01/13 07:45:19;;;;;;;61.50;22.73;;;;;;;;;;4991600;28;20161;-67
2022/01/13 07:47:46;;;;;;;67.43;22.90;;;;;;;;;;4993914;28;20086;-67
2022/01/13 07:50:15;;;;;;;68.57;22.50;;;;;;;;;;4988340;28;20492;-67
2022/01/13 07:52:42;;;;;;;57.83;21.08;;;;;;;;;;4996193;28;20061;-67
2022/01/13 07:55:10;;;;;;;71.82;23.50;;;;;;;;;;4993908;28;20057;-68
2022/01/13 07:57:37;;;;;;;69.22;22.83;;;;;;;;;;4993614;28;20057;-67
2022/01/13 08:00:08;;;;;;;70.05;24.02;;;;;;;;;;4993600;28;20054;-67
2022/01/13 08:02:36;;;;;;;69.10;23.27;;;;;;;;;;4993811;28;20061;-66
2022/01/13 08:05:04;;;;;;;76.55;23.80;;;;;;;;;;4993729;28;20058;-67
2022/01/13 08:07:31;;;;;;;75.43;23.30;;;;;;;;;;4993456;28;20058;-68
2022/01/13 08:09:58;;;;;;;67.20;23.60;;;;;;;;;;4988022;28;20042;-67
2022/01/13 08:12:25;;;;;;;65.35;21.25;;;;;;;;;;4991437;28;20058;-67
2022/01/13 08:14:52;;;;;;;77.53;23.83;;;;;;;;;;4991458;28;20054;-67
2022/01/13 08:19:45;;;;;;;75.25;25.27;;;;;;;;;;4988956;28;20732;-67
2022/01/13 08:20:08;;;;;;;69.25;25.83;;;;;;;;;;4988137;28;20061;-66
2022/01/13 08:22:35;;;;;;;71.88;24.77;;;;;;;;;;4991421;28;20054;-68
2022/01/13 08:25:03;;;;;;;71.80;25.05;;;;;;;;;;4991482;28;20050;-67
2022/01/13 08:27:30;;;;;;;67.90;23.17;;;;;;;;;;4991100;28;20046;-67
2022/01/13 08:29:57;;;;;;;69.47;23.98;;;;;;;;;;4985141;28;20051;-67
2022/01/13 08:32:25;;;;;;;77.20;24.90;;;;;;;;;;4980751;28;20061;-67
2022/01/13 08:34:52;;;;;;;72.43;25.48;;;;;;;;;;4979861;28;20050;-67
2022/01/13 08:37:19;;;;;;;72.97;24.50;;;;;;;;;;4980460;28;20058;-68
2022/01/13 08:39:46;;;;;;;69.00;23.48;;;;;;;;;;4981685;28;20058;-67
2022/01/13 08:42:13;;;;;;;76.05;23.80;;;;;;;;;;4979846;28;20068;-68
2022/01/13 08:44:41;;;;;;;75.82;24.48;;;;;;;;;;4980573;28;20046;-67
2022/01/13 08:47:09;;;;;;;65.47;23.73;;;;;;;;;;4981806;28;20093;-67
2022/01/13 08:49:37;;;;;;;76.65;23.50;;;;;;;;;;4980550;28;20126;-67
2022/01/13 08:52:06;;;;;;;71.07;25.20;;;;;;;;;;4979966;28;20050;-67
2022/01/13 08:54:33;;;;;;;77.43;25.08;;;;;;;;;;4980049;28;20526;-67
2022/01/13 08:57:01;;;;;;;78.60;26.75;;;;;;;;;;4980046;28;20050;-67
2022/01/13 08:59:28;;;;;;;70.07;22.95;;;;;;;;;;4981323;28;20049;-67
2022/01/13 09:01:55;;;;;;;74.28;24.50;;;;;;;;;;4971401;28;20058;-68
2022/01/13 09:04:22;;;;;;;72.28;26.15;;;;;;;;;;4971681;28;20422;-67
2022/01/13 09:06:51;;;;;;;74.05;24.15;;;;;;;;;;4971530;28;20054;-67
2022/01/13 09:09:17;;;;;;;72.35;26.00;;;;;;;;;;4971134;28;20337;-67
2022/01/13 09:11:45;;;;;;;72.90;24.27;;;;;;;;;;4970866;28;20054;-66
2022/01/13 09:14:13;;;;;;;68.65;24.27;;;;;;;;;;4979368;28;20066;-67
2022/01/13 09:16:46;;;;;;;67.03;23.13;;;;;;;;;;4975430;28;20154;-67
2022/01/13 09:19:17;;;;;;;72.68;24.27;;;;;;;;;;4971167;28;20464;-67
2022/01/13 09:21:46;;;;;;;86.72;28.15;;;;;;;;;;4971538;28;20057;-67
2022/01/13 09:24:16;;;;;;;89.60;29.35;;;;;;;;;;4973017;28;20074;-68
2022/01/13 09:26:44;;;;;;;92.25;30.95;;;;;;;;;;4975040;28;20499;-67
2022/01/13 09:29:12;;;;;;;83.97;24.85;;;;;;;;;;4974782;28;20051;-67
2022/01/13 09:31:40;;;;;;;75.68;26.23;;;;;;;;;;4975000;28;20051;-68
2022/01/13 09:34:09;;;;;;;84.88;28.65;;;;;;;;;;4974529;28;20052;-68
2022/01/13 09:36:37;;;;;;;74.85;25.98;;;;;;;;;;4974896;28;20054;-68
2022/01/13 09:39:05;;;;;;;78.80;24.70;;;;;;;;;;4975128;28;20055;-68
2022/01/13 09:41:34;;;;;;;85.50;25.35;;;;;;;;;;4974691;28;20101;-67
2022/01/13 09:44:05;;;;;;;74.97;24.83;;;;;;;;;;4974929;28;20054;-67
2022/01/13 09:46:32;;;;;;;77.55;25.08;;;;;;;;;;4974345;28;20114;-67
2022/01/13 09:49:02;;;;;;;83.18;25.45;;;;;;;;;;4974642;28;20160;-67
2022/01/13 09:51:31;;;;;;;74.05;24.90;;;;;;;;;;4974636;28;20043;-67
2022/01/13 09:53:58;;;;;;;73.45;24.85;;;;;;;;;;4974645;28;20054;-67
2022/01/13 09:56:25;;;;;;;67.55;24.33;;;;;;;;;;4975007;28;20055;-67
2022/01/13 09:58:53;;;;;;;71.75;25.63;;;;;;;;;;4990102;28;20054;-67
2022/01/13 10:01:20;;;;;;;71.63;25.13;;;;;;;;;;4995476;28;20108;-67
2022/01/13 10:03:48;;;;;;;73.72;25.40;;;;;;;;;;4996099;28;20057;-68
2022/01/13 10:06:16;;;;;;;81.18;24.70;;;;;;;;;;4996054;28;20557;-68
2022/01/13 10:08:45;;;;;;;68.35;22.73;;;;;;;;;;4995503;28;20054;-67
2022/01/13 10:11:27;;;;;;;69.68;25.15;;;;;;;;;;4995409;28;20046;-67
2022/01/13 10:14:13;;;;;;;69.25;25.45;;;;;;;;;;4996034;28;20137;-68
2022/01/13 10:16:48;;;;;;;81.82;26.42;;;;;;;;;;4995211;28;20047;-67
2022/01/13 10:19:29;;;;;;;74.60;23.83;;;;;;;;;;4995488;28;20145;-67
2022/01/13 10:21:58;;;;;;;81.80;24.48;;;;;;;;;;4995441;28;20065;-67
2022/01/13 10:24:26;;;;;;;70.78;23.65;;;;;;;;;;4995276;28;20062;-66
2022/01/13 10:27:01;;;;;;;68.32;24.55;;;;;;;;;;4995441;28;20050;-67
2022/01/13 10:29:40;;;;;;;77.00;25.45;;;;;;;;;;4995585;28;20051;-67
2022/01/13 10:32:08;;;;;;;80.93;25.67;;;;;;;;;;4995088;28;20427;-67
2022/01/13 10:34:37;;;;;;;67.20;22.88;;;;;;;;;;4994311;28;20053;-67
2022/01/13 10:37:10;;;;;;;66.25;23.40;;;;;;;;;;4990244;28;20042;-67
2022/01/13 10:39:58;;;;;;;73.65;23.48;;;;;;;;;;4993348;28;20086;-68
2022/01/13 10:43:08;;;;;;;69.25;22.02;;;;;;;;;;4994015;28;20507;-67
2022/01/13 10:45:39;;;;;;;70.97;23.73;;;;;;;;;;4993033;28;20050;-67
2022/01/13 10:48:07;;;;;;;;;;;;;;;;;;4993193;28;20053;-68
2022/01/13 10:50:38;;;;;;;94.25;31.13;;;;;;;;;;4993166;28;19926;-67
2022/01/13 10:53:09;;;;;;;96.30;32.83;;;;;;;;;;4993053;28;20057;-67
2022/01/13 10:55:40;;;;;;;68.63;23.83;;;;;;;;;;4993073;28;20054;-67
2022/01/13 10:58:07;;;;;;;67.88;23.33;;;;;;;;;;4992900;28;20065;-69
2022/01/13 11:00:36;;;;;;;67.65;22.40;;;;;;;;;;4993186;28;20053;-67
2022/01/13 11:03:08;;;;;;;66.03;21.92;;;;;;;;;;4990466;28;20093;-68
2022/01/13 11:05:38;;;;;;;67.57;23.33;;;;;;;;;;4982368;28;20050;-68
2022/01/13 11:08:07;;;;;;;64.65;21.98;;;;;;;;;;4992712;28;20438;-68
2022/01/13 11:10:36;;;;;;;74.18;24.05;;;;;;;;;;4992643;28;20057;-68
2022/01/13 11:13:05;;;;;;;69.93;22.83;;;;;;;;;;4992495;28;20487;-67
2022/01/13 11:15:34;;;;;;;64.97;23.08;;;;;;;;;;4992509;28;20050;-70
2022/01/13 11:18:01;;;;;;;71.53;22.38;;;;;;;;;;4992381;28;20145;-67
2022/01/13 11:20:30;;;;;;;62.20;23.48;;;;;;;;;;4993210;28;20053;-67
2022/01/13 11:22:58;;;;;;;65.78;22.17;;;;;;;;;;4992382;28;20054;-67
2022/01/13 11:25:27;;;;;;;62.88;22.58;;;;;;;;;;4992253;28;20050;-67
2022/01/13 11:27:55;;;;;;;71.07;24.23;;;;;;;;;;4991788;28;20058;-67
2022/01/13 11:30:24;;;;;;;73.20;22.75;;;;;;;;;;4992026;28;20057;-66
2022/01/13 11:32:51;;;;;;;66.20;22.95;;;;;;;;;;4991960;28;20304;-67
2022/01/13 11:35:23;;;;;;;71.70;24.58;;;;;;;;;;4991857;28;20108;-66
2022/01/13 11:37:52;;;;;;;68.93;22.77;;;;;;;;;;4991916;28;20597;-67
2022/01/13 11:40:40;;;;;;;64.25;23.17;;;;;;;;;;4992324;28;20412;-66
2022/01/13 11:43:09;;;;;;;63.15;22.98;;;;;;;;;;4992306;28;20135;-69
2022/01/13 11:45:40;;;;;;;59.75;21.13;;;;;;;;;;4992882;28;20428;-65
2022/01/13 11:48:23;;;;;;;56.83;21.65;;;;;;;;;;4991641;28;20058;-67
2022/01/13 11:50:52;;;;;;;64.10;22.55;;;;;;;;;;4991879;28;20055;-65
2022/01/13 11:53:24;;;;;;;64.30;21.65;;;;;;;;;;4991704;28;20141;-67
2022/01/13 11:55:53;;;;;;;73.57;23.88;;;;;;;;;;4991987;28;20042;-67
2022/01/13 11:58:25;;;;;;;64.47;23.88;;;;;;;;;;4991529;28;20062;-67
2022/01/13 12:00:52;;;;;;;59.78;21.27;;;;;;;;;;4992033;28;20054;-68
2022/01/13 12:03:28;;;;;;;65.97;21.48;;;;;;;;;;4991579;28;20054;-67
2022/01/13 12:05:56;;;;;;;62.70;22.95;;;;;;;;;;4991650;28;20073;-69
2022/01/13 12:08:49;;;;;;;82.82;24.90;;;;;;;;;;4991586;28;20050;-67
2022/01/13 12:11:35;;;;;;;60.28;20.67;;;;;;;;;;4991807;28;20534;-68
2022/01/13 12:14:02;;;;;;;134.07;35.75;;;;;;;;;;4991550;28;20057;-67
2022/01/13 12:16:55;;;;;;;72.68;26.95;;;;;;;;;;4991088;28;20058;-67
2022/01/13 12:19:29;;;;;;;69.72;23.38;;;;;;;;;;5027323;23;20467;-75
2022/01/13 12:22:03;;;;;;;67.93;21.80;;;;;;;;;;5035638;28;20049;-78
2022/01/13 12:24:50;;;;;;;72.00;23.13;;;;;;;;;;5031230;28;20048;-76
2022/01/13 12:27:18;;;;;;;54.88;21.23;;;;;;;;;;5030352;28;20482;-76
2022/01/13 12:29:50;;;;;;;62.83;21.08;;;;;;;;;;5019021;28;20424;-76
2022/01/13 12:32:33;;;;;;;65.13;21.88;;;;;;;;;;5010536;28;20073;-76
2022/01/13 12:35:00;;;;;;;62.55;21.15;;;;;;;;;;5011165;28;20042;-76
2022/01/13 12:37:29;;;;;;;80.90;30.58;;;;;;;;;;5010446;28;20051;-76
2022/01/13 12:40:00;;;;;;;83.28;28.77;;;;;;;;;;5011120;28;20130;-76
2022/01/13 12:42:36;;;;;;;69.32;24.75;;;;;;;;;;5010955;28;20049;-76
2022/01/13 12:47:48;;;;;;;61.92;21.35;;;;;;;;;;5010394;28;20061;-76
2022/01/13 12:50:18;;;;;;;56.38;21.65;;;;;;;;;;5011342;28;20088;-78
2022/01/13 12:52:45;;;;;;;57.72;20.95;;;;;;;;;;5011306;28;20078;-77
2022/01/13 12:55:14;;;;;;;59.97;21.20;;;;;;;;;;5011014;28;20100;-77
2022/01/13 12:57:45;;;;;;;61.25;22.17;;;;;;;;;;5009850;28;20143;-77
2022/01/13 13:00:14;;;;;;;57.05;19.25;;;;;;;;;;5004712;28;20711;-77
2022/01/13 13:02:50;;;;;;;58.20;19.98;;;;;;;;;;4990905;28;20078;-77
2022/01/13 13:05:32;;;;;;;72.75;24.25;;;;;;;;;;4991435;28;20069;-77
2022/01/13 13:08:00;;;;;;;60.70;19.08;;;;;;;;;;4991262;28;20046;-78
2022/01/13 13:10:29;;;;;;;62.20;20.65;;;;;;;;;;4991342;28;20074;-77
2022/01/13 13:12:56;;;;;;;57.90;20.67;;;;;;;;;;4990781;28;20469;-77
2022/01/13 13:15:41;;;;;;;52.50;19.33;;;;;;;;;;4990918;28;20061;-77
2022/01/13 13:18:09;;;;;;;54.40;20.58;;;;;;;;;;4990968;28;20177;-76
2022/01/13 13:20:38;;;;;;;60.25;20.90;;;;;;;;;;4991537;28;20078;-77
2022/01/13 13:23:06;;;;;;;55.35;19.38;;;;;;;;;;4992172;28;20092;-77
2022/01/13 13:25:37;;;;;;;56.13;18.77;;;;;;;;;;4990960;28;20046;-77
2022/01/13 13:28:32;;;;;;;52.85;18.90;;;;;;;;;;4991487;28;20105;-77
2022/01/13 13:31:05;;;;;;;53.63;18.60;;;;;;;;;;4991743;28;20096;-77
2022/01/13 13:33:35;;;;;;;63.17;19.38;;;;;;;;;;4990884;28;20078;-77
2022/01/13 13:36:04;;;;;;;56.15;19.25;;;;;;;;;;4991429;28;20124;-77
2022/01/13 13:38:31;;;;;;;55.53;19.50;;;;;;;;;;4990694;28;20156;-77
2022/01/13 13:41:00;;;;;;;51.50;18.55;;;;;;;;;;4991615;28;20077;-76
2022/01/13 13:43:33;;;;;;;50.00;19.02;;;;;;;;;;4990365;28;20108;-77
2022/01/13 13:46:02;;;;;;;56.08;20.60;;;;;;;;;;4990462;28;20090;-77
2022/01/13 13:48:29;;;;;;;55.65;19.83;;;;;;;;;;4990184;28;20085;-76
2022/01/13 13:50:56;;;;;;;54.03;20.67;;;;;;;;;;5004333;28;20088;-77
2022/01/13 13:53:23;;;;;;;55.78;19.40;;;;;;;;;;5009769;28;20578;-76
2022/01/13 13:56:03;;;;;;;53.33;19.40;;;;;;;;;;4998765;28;20060;-76
2022/01/13 13:58:30;;;;;;;63.97;20.92;;;;;;;;;;5009105;28;20078;-77
2022/01/13 14:01:01;;;;;;;58.85;18.88;;;;;;;;;;5010564;28;20078;-76
2022/01/13 14:03:39;;;;;;;67.05;20.77;;;;;;;;;;5009817;28;20049;-75
2022/01/13 14:06:07;;;;;;;59.13;22.00;;;;;;;;;;5010550;28;20133;-76
2022/01/13 14:08:34;;;;;;;58.10;20.52;;;;;;;;;;5010277;28;20053;-76
2022/01/13 14:11:09;;;;;;;56.33;20.55;;;;;;;;;;5013376;28;20096;-76
2022/01/13 14:13:36;;;;;;;58.30;19.40;;;;;;;;;;5013251;28;20133;-76
2022/01/13 14:16:05;;;;;;;63.63;21.42;;;;;;;;;;5013617;28;20096;-77
2022/01/13 14:18:36;;;;;;;61.80;21.35;;;;;;;;;;5013119;28;20049;-77
2022/01/13 14:21:05;;;;;;;59.28;20.15;;;;;;;;;;5015203;28;20131;-78
2022/01/13 14:23:34;;;;;;;50.88;18.75;;;;;;;;;;5014956;28;20108;-76
2022/01/13 14:26:06;;;;;;;59.25;21.00;;;;;;;;;;5010735;28;20500;-77
2022/01/13 14:28:39;;;;;;;59.85;20.77;;;;;;;;;;4993852;28;20061;-77
2022/01/13 14:31:08;;;;;;;64.28;21.98;;;;;;;;;;4993891;28;20057;-77
2022/01/13 14:33:35;;;;;;;64.60;21.50;;;;;;;;;;4994609;28;20490;-77
2022/01/13 14:36:06;;;;;;;65.43;21.70;;;;;;;;;;4995690;28;20073;-77
2022/01/13 14:38:45;;;;;;;58.85;21.10;;;;;;;;;;4994784;28;20066;-77
2022/01/13 14:41:13;;;;;;;57.97;21.17;;;;;;;;;;4994562;28;20464;-78
2022/01/13 14:43:55;;;;;;;71.25;22.98;;;;;;;;;;4995742;28;20081;-78
2022/01/13 14:46:22;;;;;;;72.95;24.90;;;;;;;;;;4993895;28;20078;-77